sensor_id;sensor_type;location;lat;lon;timestamp;pressure;altitude;pressure_sealevel;temperature;humidity
41686;BME280;27370;42.764;23.432;2023-02-21T00:01:36;95985.59;;;3.15;100.00
41686;BME280;27370;42.764;23.432;2023-02-21T00:04:19;95976.44;;;3.16;100.00
41686;BME280;27370;42.764;23.432;2023-02-21T00:07:03;95978.97;;;3.09;100.00
41686;BME280;27370;42.764;23.432;2023-02-21T00:09:47;95970.38;;;2.84;100.00
41686;BME280;27370;42.764;23.432;2023-02-21T00:12:32;95974.34;;;2.74;100.00
41686;BME280;27370;42.764;23.432;2023-02-21T00:15:16;95967.88;;;2.60;100.00
41686;BME280;27370;42.764;23.432;2023-02-21T00:18:00;95969.00;;;2.59;100.00
41686;BME280;27370;42.764;23.432;2023-02-21T00:20:45;95965.41;;;2.51;100.00
41686;BME280;27370;42.764;23.432;2023-02-21T00:23:33;95975.41;;;2.54;100.00
41686;BME280;27370;42.764;23.432;2023-02-21T00:26:18;95975.41;;;2.54;100.00
41686;BME280;27370;42.764;23.432;2023-02-21T00:29:02;95965.56;;;2.42;100.00
41686;BME280;27370;42.764;23.432;2023-02-21T00:31:46;95977.72;;;2.40;100.00
41686;BME280;27370;42.764;23.432;2023-02-21T00:34:30;95964.53;;;2.31;100.00
41686;BME280;27370;42.764;23.432;2023-02-21T00:37:14;95975.38;;;2.38;100.00
41686;BME280;27370;42.764;23.432;2023-02-21T00:39:58;95971.31;;;2.44;100.00
41686;BME280;27370;42.764;23.432;2023-02-21T00:42:43;95965.03;;;2.37;100.00
41686;BME280;27370;42.764;23.432;2023-02-21T00:45:27;95965.78;;;2.22;100.00
41686;BME280;27370;42.764;23.432;2023-02-21T00:48:11;95961.13;;;2.19;100.00
41686;BME280;27370;42.764;23.432;2023-02-21T00:50:55;95944.00;;;2.04;100.00
41686;BME280;27370;42.764;23.432;2023-02-21T00:53:39;95934.22;;;1.96;100.00
41686;BME280;27370;42.764;23.432;2023-02-21T00:56:23;95946.97;;;2.02;100.00
41686;BME280;27370;42.764;23.432;2023-02-21T00:59:07;95947.09;;;2.06;100.00
41686;BME280;27370;42.764;23.432;2023-02-21T01:01:51;95926.38;;;2.03;100.00
41686;BME280;27370;42.764;23.432;2023-02-21T01:04:35;95931.94;;;2.10;100.00
41686;BME280;27370;42.764;23.432;2023-02-21T01:07:18;95919.16;;;2.03;100.00
41686;BME280;27370;42.764;23.432;2023-02-21T01:10:04;95911.25;;;2.07;100.00
41686;BME280;27370;42.764;23.432;2023-02-21T01:12:48;95895.72;;;1.97;100.00
41686;BME280;27370;42.764;23.432;2023-02-21T01:15:32;95910.34;;;2.03;100.00
41686;BME280;27370;42.764;23.432;2023-02-21T01:18:16;95895.38;;;1.98;100.00
41686;BME280;27370;42.764;23.432;2023-02-21T01:21:01;95899.44;;;2.08;100.00
41686;BME280;27370;42.764;23.432;2023-02-21T01:23:45;95899.50;;;1.96;100.00
41686;BME280;27370;42.764;23.432;2023-02-21T01:26:29;95886.53;;;2.10;100.00
41686;BME280;27370;42.764;23.432;2023-02-21T01:29:13;95881.84;;;2.23;100.00
41686;BME280;27370;42.764;23.432;2023-02-21T01:31:58;95876.84;;;2.21;100.00
41686;BME280;27370;42.764;23.432;2023-02-21T01:34:43;95875.56;;;2.31;100.00
41686;BME280;27370;42.764;23.432;2023-02-21T01:37:27;95870.13;;;2.43;100.00
41686;BME280;27370;42.764;23.432;2023-02-21T01:40:14;95882.78;;;2.62;100.00
41686;BME280;27370;42.764;23.432;2023-02-21T01:43:00;95884.03;;;2.68;100.00
41686;BME280;27370;42.764;23.432;2023-02-21T01:45:47;95897.50;;;2.71;100.00
41686;BME280;27370;42.764;23.432;2023-02-21T01:48:32;95881.69;;;2.82;100.00
41686;BME280;27370;42.764;23.432;2023-02-21T01:51:19;95869.06;;;2.98;100.00
41686;BME280;27370;42.764;23.432;2023-02-21T01:54:05;95876.78;;;2.84;100.00
41686;BME280;27370;42.764;23.432;2023-02-21T01:56:50;95864.03;;;2.78;100.00
41686;BME280;27370;42.764;23.432;2023-02-21T01:59:35;95857.84;;;2.73;100.00
41686;BME280;27370;42.764;23.432;2023-02-21T02:02:37;95852.50;;;2.58;100.00
41686;BME280;27370;42.764;23.432;2023-02-21T02:05:24;95846.53;;;2.29;100.00
41686;BME280;27370;42.764;23.432;2023-02-21T02:08:10;95845.59;;;1.90;100.00
41686;BME280;27370;42.764;23.432;2023-02-21T02:19:54;95852.28;;;1.68;100.00
41686;BME280;27370;42.764;23.432;2023-02-21T02:25:19;95843.75;;;1.35;100.00
41686;BME280;27370;42.764;23.432;2023-02-21T02:27:53;95852.03;;;1.30;100.00
41686;BME280;27370;42.764;23.432;2023-02-21T02:35:44;95849.97;;;1.11;100.00
41686;BME280;27370;42.764;23.432;2023-02-21T02:38:21;95837.59;;;0.90;100.00
41686;BME280;27370;42.764;23.432;2023-02-21T02:41:11;95836.50;;;0.91;100.00
41686;BME280;27370;42.764;23.432;2023-02-21T02:43:48;95831.19;;;0.91;100.00
41686;BME280;27370;42.764;23.432;2023-02-21T02:49:03;95832.28;;;0.90;100.00
41686;BME280;27370;42.764;23.432;2023-02-21T02:51:32;95829.28;;;0.92;100.00
41686;BME280;27370;42.764;23.432;2023-02-21T02:54:00;95821.91;;;1.01;100.00
41686;BME280;27370;42.764;23.432;2023-02-21T02:56:26;95825.63;;;1.12;100.00
41686;BME280;27370;42.764;23.432;2023-02-21T03:15:04;95822.25;;;1.28;100.00
41686;BME280;27370;42.764;23.432;2023-02-21T03:17:37;95827.88;;;1.10;100.00
41686;BME280;27370;42.764;23.432;2023-02-21T03:20:06;95829.63;;;1.18;100.00
41686;BME280;27370;42.764;23.432;2023-02-21T03:22:32;95821.66;;;1.06;100.00
41686;BME280;27370;42.764;23.432;2023-02-21T03:25:00;95831.91;;;1.04;100.00
41686;BME280;27370;42.764;23.432;2023-02-21T03:27:28;95819.84;;;0.95;100.00
41686;BME280;27370;42.764;23.432;2023-02-21T03:30:06;95812.97;;;0.94;100.00
41686;BME280;27370;42.764;23.432;2023-02-21T03:32:53;95814.41;;;0.91;100.00
41686;BME280;27370;42.764;23.432;2023-02-21T03:35:22;95827.59;;;1.00;100.00
41686;BME280;27370;42.764;23.432;2023-02-21T03:37:50;95821.81;;;0.98;100.00
41686;BME280;27370;42.764;23.432;2023-02-21T03:40:28;95831.09;;;1.16;100.00
41686;BME280;27370;42.764;23.432;2023-02-21T03:42:58;95831.66;;;1.09;100.00
41686;BME280;27370;42.764;23.432;2023-02-21T03:45:26;95829.03;;;0.97;100.00
41686;BME280;27370;42.764;23.432;2023-02-21T03:48:02;95833.28;;;0.86;100.00
41686;BME280;27370;42.764;23.432;2023-02-21T03:50:29;95834.94;;;0.90;100.00
41686;BME280;27370;42.764;23.432;2023-02-21T03:52:54;95837.84;;;0.85;100.00
41686;BME280;27370;42.764;23.432;2023-02-21T03:55:21;95838.91;;;0.69;100.00
41686;BME280;27370;42.764;23.432;2023-02-21T03:57:47;95850.00;;;0.58;100.00
41686;BME280;27370;42.764;23.432;2023-02-21T04:00:14;95836.78;;;0.74;100.00
41686;BME280;27370;42.764;23.432;2023-02-21T04:02:47;95848.22;;;0.75;100.00
41686;BME280;27370;42.764;23.432;2023-02-21T04:05:23;95838.72;;;0.89;100.00
41686;BME280;27370;42.764;23.432;2023-02-21T04:07:48;95843.31;;;0.65;100.00
41686;BME280;27370;42.764;23.432;2023-02-21T04:10:15;95845.78;;;0.45;100.00
41686;BME280;27370;42.764;23.432;2023-02-21T04:12:43;95833.38;;;0.37;100.00
41686;BME280;27370;42.764;23.432;2023-02-21T04:15:10;95854.25;;;0.35;100.00
41686;BME280;27370;42.764;23.432;2023-02-21T04:17:36;95845.03;;;0.20;100.00
41686;BME280;27370;42.764;23.432;2023-02-21T04:20:03;95845.16;;;0.12;100.00
41686;BME280;27370;42.764;23.432;2023-02-21T04:22:31;95834.06;;;0.22;100.00
41686;BME280;27370;42.764;23.432;2023-02-21T04:24:56;95837.72;;;0.17;100.00
41686;BME280;27370;42.764;23.432;2023-02-21T04:27:23;95849.16;;;0.06;100.00
41686;BME280;27370;42.764;23.432;2023-02-21T04:29:53;95856.44;;;-0.04;100.00
41686;BME280;27370;42.764;23.432;2023-02-21T04:32:19;95856.91;;;-0.02;100.00
41686;BME280;27370;42.764;23.432;2023-02-21T04:34:44;95856.16;;;0.10;100.00
41686;BME280;27370;42.764;23.432;2023-02-21T04:37:10;95858.69;;;-0.06;100.00
41686;BME280;27370;42.764;23.432;2023-02-21T04:39:36;95861.13;;;-0.13;100.00
41686;BME280;27370;42.764;23.432;2023-02-21T04:42:02;95850.69;;;-0.18;100.00
41686;BME280;27370;42.764;23.432;2023-02-21T04:44:28;95858.41;;;-0.25;100.00
41686;BME280;27370;42.764;23.432;2023-02-21T04:46:53;95848.81;;;-0.17;100.00
41686;BME280;27370;42.764;23.432;2023-02-21T04:49:19;95846.66;;;-0.36;100.00
41686;BME280;27370;42.764;23.432;2023-02-21T04:51:44;95852.44;;;-0.34;100.00
41686;BME280;27370;42.764;23.432;2023-02-21T04:54:10;95858.81;;;-0.47;100.00
41686;BME280;27370;42.764;23.432;2023-02-21T04:56:35;95863.44;;;-0.56;100.00
41686;BME280;27370;42.764;23.432;2023-02-21T04:59:02;95857.03;;;-0.55;100.00
41686;BME280;27370;42.764;23.432;2023-02-21T05:01:29;95860.13;;;-0.53;100.00
41686;BME280;27370;42.764;23.432;2023-02-21T05:03:56;95851.16;;;-0.49;100.00
41686;BME280;27370;42.764;23.432;2023-02-21T05:06:23;95841.97;;;-0.51;100.00
41686;BME280;27370;42.764;23.432;2023-02-21T05:08:49;95844.19;;;-0.53;100.00
41686;BME280;27370;42.764;23.432;2023-02-21T05:11:16;95843.84;;;-0.64;100.00
41686;BME280;27370;42.764;23.432;2023-02-21T05:13:42;95834.53;;;-0.46;100.00
41686;BME280;27370;42.764;23.432;2023-02-21T05:16:07;95836.31;;;-0.50;100.00
41686;BME280;27370;42.764;23.432;2023-02-21T05:18:33;95843.78;;;-0.43;100.00
41686;BME280;27370;42.764;23.432;2023-02-21T05:20:59;95837.78;;;-0.40;100.00
41686;BME280;27370;42.764;23.432;2023-02-21T05:23:24;95845.09;;;-0.37;100.00
41686;BME280;27370;42.764;23.432;2023-02-21T05:26:10;95838.09;;;-0.54;100.00
41686;BME280;27370;42.764;23.432;2023-02-21T05:28:38;95850.44;;;-0.25;100.00
41686;BME280;27370;42.764;23.432;2023-02-21T05:31:04;95841.38;;;-0.12;100.00
41686;BME280;27370;42.764;23.432;2023-02-21T05:33:30;95839.59;;;-0.08;100.00
41686;BME280;27370;42.764;23.432;2023-02-21T05:35:55;95844.94;;;0.05;100.00
41686;BME280;27370;42.764;23.432;2023-02-21T05:38:22;95847.50;;;0.01;100.00
41686;BME280;27370;42.764;23.432;2023-02-21T05:40:48;95847.34;;;-0.03;100.00
41686;BME280;27370;42.764;23.432;2023-02-21T05:43:14;95833.94;;;-0.06;100.00
41686;BME280;27370;42.764;23.432;2023-02-21T05:45:40;95847.72;;;0.08;100.00
41686;BME280;27370;42.764;23.432;2023-02-21T05:48:06;95844.06;;;0.13;100.00
41686;BME280;27370;42.764;23.432;2023-02-21T05:50:31;95837.63;;;0.14;100.00
41686;BME280;27370;42.764;23.432;2023-02-21T05:52:58;95852.91;;;0.53;100.00
41686;BME280;27370;42.764;23.432;2023-02-21T05:55:24;95855.78;;;0.73;100.00
41686;BME280;27370;42.764;23.432;2023-02-21T06:00:29;95853.03;;;1.25;100.00
41686;BME280;27370;42.764;23.432;2023-02-21T06:02:54;95862.69;;;1.30;100.00
41686;BME280;27370;42.764;23.432;2023-02-21T06:05:22;95842.66;;;1.36;100.00
41686;BME280;27370;42.764;23.432;2023-02-21T06:07:48;95866.72;;;1.51;100.00
41686;BME280;27370;42.764;23.432;2023-02-21T06:10:14;95852.28;;;1.68;100.00
41686;BME280;27370;42.764;23.432;2023-02-21T06:12:39;95851.00;;;1.94;100.00
41686;BME280;27370;42.764;23.432;2023-02-21T06:15:06;95865.59;;;2.12;100.00
41686;BME280;27370;42.764;23.432;2023-02-21T06:17:35;95853.34;;;2.11;100.00
41686;BME280;27370;42.764;23.432;2023-02-21T06:20:02;95855.13;;;2.23;100.00
41686;BME280;27370;42.764;23.432;2023-02-21T06:22:27;95866.34;;;2.28;100.00
41686;BME280;27370;42.764;23.432;2023-02-21T06:24:53;95863.94;;;2.23;100.00
41686;BME280;27370;42.764;23.432;2023-02-21T06:27:18;95865.13;;;2.26;100.00
41686;BME280;27370;42.764;23.432;2023-02-21T06:29:43;95855.03;;;2.51;100.00
41686;BME280;27370;42.764;23.432;2023-02-21T06:32:09;95856.88;;;2.66;100.00
41686;BME280;27370;42.764;23.432;2023-02-21T06:34:34;95857.78;;;2.89;100.00
41686;BME280;27370;42.764;23.432;2023-02-21T06:37:00;95868.34;;;3.01;100.00
41686;BME280;27370;42.764;23.432;2023-02-21T06:39:25;95869.34;;;3.13;100.00
41686;BME280;27370;42.764;23.432;2023-02-21T06:41:51;95874.09;;;2.84;100.00
41686;BME280;27370;42.764;23.432;2023-02-21T06:44:18;95869.72;;;2.76;100.00
41686;BME280;27370;42.764;23.432;2023-02-21T06:46:44;95877.28;;;3.09;100.00
41686;BME280;27370;42.764;23.432;2023-02-21T06:49:10;95889.63;;;3.33;100.00
41686;BME280;27370;42.764;23.432;2023-02-21T06:51:39;95885.53;;;3.58;100.00
41686;BME280;27370;42.764;23.432;2023-02-21T06:54:05;95886.66;;;3.77;100.00
41686;BME280;27370;42.764;23.432;2023-02-21T06:56:32;95881.50;;;4.10;100.00
41686;BME280;27370;42.764;23.432;2023-02-21T06:58:58;95863.34;;;4.49;100.00
41686;BME280;27370;42.764;23.432;2023-02-21T07:01:25;95882.16;;;4.76;100.00
41686;BME280;27370;42.764;23.432;2023-02-21T07:03:53;95885.03;;;4.64;100.00
41686;BME280;27370;42.764;23.432;2023-02-21T07:06:19;95887.03;;;4.97;100.00
41686;BME280;27370;42.764;23.432;2023-02-21T07:08:45;95885.88;;;5.24;100.00
41686;BME280;27370;42.764;23.432;2023-02-21T07:11:10;95887.00;;;5.53;100.00
41686;BME280;27370;42.764;23.432;2023-02-21T07:13:36;95878.75;;;5.72;100.00
41686;BME280;27370;42.764;23.432;2023-02-21T07:16:02;95880.53;;;5.91;100.00
41686;BME280;27370;42.764;23.432;2023-02-21T07:18:28;95862.22;;;6.04;100.00
41686;BME280;27370;42.764;23.432;2023-02-21T07:20:53;95869.72;;;6.28;100.00
41686;BME280;27370;42.764;23.432;2023-02-21T07:23:19;95870.38;;;6.62;100.00
41686;BME280;27370;42.764;23.432;2023-02-21T07:25:44;95856.22;;;6.76;100.00
41686;BME280;27370;42.764;23.432;2023-02-21T07:28:11;95861.84;;;7.12;100.00
41686;BME280;27370;42.764;23.432;2023-02-21T07:30:36;95858.47;;;7.29;100.00
41686;BME280;27370;42.764;23.432;2023-02-21T07:33:02;95848.16;;;7.49;100.00
41686;BME280;27370;42.764;23.432;2023-02-21T07:35:27;95855.94;;;7.75;100.00
41686;BME280;27370;42.764;23.432;2023-02-21T07:37:53;95848.63;;;7.90;100.00
41686;BME280;27370;42.764;23.432;2023-02-21T07:40:18;95846.69;;;7.90;100.00
41686;BME280;27370;42.764;23.432;2023-02-21T07:42:44;95846.75;;;8.15;100.00
41686;BME280;27370;42.764;23.432;2023-02-21T07:45:10;95837.94;;;8.43;100.00
41686;BME280;27370;42.764;23.432;2023-02-21T07:47:36;95839.47;;;8.66;100.00
41686;BME280;27370;42.764;23.432;2023-02-21T07:50:02;95829.41;;;8.70;100.00
41686;BME280;27370;42.764;23.432;2023-02-21T07:52:28;95847.50;;;8.94;100.00
41686;BME280;27370;42.764;23.432;2023-02-21T07:54:53;95838.66;;;8.83;100.00
41686;BME280;27370;42.764;23.432;2023-02-21T07:57:19;95831.34;;;8.83;100.00
41686;BME280;27370;42.764;23.432;2023-02-21T07:59:44;95821.56;;;9.21;100.00
41686;BME280;27370;42.764;23.432;2023-02-21T08:02:11;95835.28;;;9.66;95.83
41686;BME280;27370;42.764;23.432;2023-02-21T08:04:37;95828.59;;;9.89;94.97
41686;BME280;27370;42.764;23.432;2023-02-21T08:07:03;95831.31;;;9.85;89.89
41686;BME280;27370;42.764;23.432;2023-02-21T08:09:29;95823.53;;;9.91;89.30
41686;BME280;27370;42.764;23.432;2023-02-21T08:11:55;95821.25;;;9.86;91.51
41686;BME280;27370;42.764;23.432;2023-02-21T08:14:21;95826.78;;;9.64;88.77
41686;BME280;27370;42.764;23.432;2023-02-21T08:16:46;95808.44;;;9.31;85.71
41686;BME280;27370;42.764;23.432;2023-02-21T08:19:13;95819.94;;;9.42;88.42
41686;BME280;27370;42.764;23.432;2023-02-21T08:21:43;95815.75;;;9.34;83.42
41686;BME280;27370;42.764;23.432;2023-02-21T08:24:10;95811.44;;;9.43;86.12
41686;BME280;27370;42.764;23.432;2023-02-21T08:26:36;95809.88;;;9.53;85.51
41686;BME280;27370;42.764;23.432;2023-02-21T08:29:01;95803.16;;;9.79;86.84
41686;BME280;27370;42.764;23.432;2023-02-21T08:31:28;95807.22;;;10.05;82.75
41686;BME280;27370;42.764;23.432;2023-02-21T08:33:54;95800.72;;;9.99;85.00
41686;BME280;27370;42.764;23.432;2023-02-21T08:36:21;95802.63;;;10.02;79.37
41686;BME280;27370;42.764;23.432;2023-02-21T08:38:48;95805.66;;;10.07;79.85
41686;BME280;27370;42.764;23.432;2023-02-21T08:41:13;95802.13;;;10.14;79.85
41686;BME280;27370;42.764;23.432;2023-02-21T08:43:40;95811.75;;;10.26;77.27
41686;BME280;27370;42.764;23.432;2023-02-21T08:46:06;95801.25;;;10.31;78.97
41686;BME280;27370;42.764;23.432;2023-02-21T08:48:33;95796.81;;;10.52;77.85
41686;BME280;27370;42.764;23.432;2023-02-21T08:50:58;95792.75;;;10.74;76.79
41686;BME280;27370;42.764;23.432;2023-02-21T08:53:24;95793.72;;;10.94;73.49
41686;BME280;27370;42.764;23.432;2023-02-21T08:55:49;95791.84;;;10.88;74.21
41686;BME280;27370;42.764;23.432;2023-02-21T08:58:15;95788.34;;;10.91;74.43
41686;BME280;27370;42.764;23.432;2023-02-21T09:00:40;95783.09;;;11.07;74.90
41686;BME280;27370;42.764;23.432;2023-02-21T09:03:06;95786.47;;;11.18;75.70
41686;BME280;27370;42.764;23.432;2023-02-21T09:05:31;95785.28;;;11.50;70.87
41686;BME280;27370;42.764;23.432;2023-02-21T09:07:59;95779.13;;;11.80;71.34
41686;BME280;27370;42.764;23.432;2023-02-21T09:10:29;95783.09;;;11.99;66.14
41686;BME280;27370;42.764;23.432;2023-02-21T09:12:55;95780.88;;;12.17;65.91
41686;BME280;27370;42.764;23.432;2023-02-21T09:15:21;95779.81;;;12.34;67.99
41686;BME280;27370;42.764;23.432;2023-02-21T09:17:48;95774.59;;;12.23;67.34
41686;BME280;27370;42.764;23.432;2023-02-21T09:20:18;95773.81;;;12.70;64.07
41686;BME280;27370;42.764;23.432;2023-02-21T09:22:44;95766.63;;;12.79;62.91
41686;BME280;27370;42.764;23.432;2023-02-21T09:25:11;95760.72;;;13.04;64.87
41686;BME280;27370;42.764;23.432;2023-02-21T09:27:38;95756.06;;;13.44;62.84
41686;BME280;27370;42.764;23.432;2023-02-21T09:30:19;95744.38;;;13.64;63.27
41686;BME280;27370;42.764;23.432;2023-02-21T09:32:47;95736.66;;;13.95;59.70
41686;BME280;27370;42.764;23.432;2023-02-21T09:35:13;95740.16;;;14.44;56.99
41686;BME280;27370;42.764;23.432;2023-02-21T09:37:40;95723.56;;;14.38;57.96
41686;BME280;27370;42.764;23.432;2023-02-21T09:40:34;95731.16;;;15.05;53.62
41686;BME280;27370;42.764;23.432;2023-02-21T09:42:59;95725.16;;;15.10;52.14
41686;BME280;27370;42.764;23.432;2023-02-21T09:45:33;95727.28;;;15.31;53.54
41686;BME280;27370;42.764;23.432;2023-02-21T09:48:08;95719.84;;;15.86;50.23
41686;BME280;27370;42.764;23.432;2023-02-21T09:50:43;95718.41;;;15.95;47.48
41686;BME280;27370;42.764;23.432;2023-02-21T09:53:13;95714.91;;;15.81;48.56
41686;BME280;27370;42.764;23.432;2023-02-21T09:55:40;95713.50;;;15.77;51.15
41686;BME280;27370;42.764;23.432;2023-02-21T09:58:14;95705.94;;;16.06;47.86
41686;BME280;27370;42.764;23.432;2023-02-21T10:00:42;95703.19;;;16.32;46.54
41686;BME280;27370;42.764;23.432;2023-02-21T10:08:46;95697.53;;;16.48;44.14
41686;BME280;27370;42.764;23.432;2023-02-21T10:11:40;95686.19;;;15.89;44.50
41686;BME280;27370;42.764;23.432;2023-02-21T10:14:33;95689.56;;;15.93;44.91
41686;BME280;27370;42.764;23.432;2023-02-21T10:20:11;95676.84;;;16.25;45.14
41686;BME280;27370;42.764;23.432;2023-02-21T10:22:39;95669.63;;;16.31;45.34
41686;BME280;27370;42.764;23.432;2023-02-21T10:25:27;95666.09;;;16.65;42.19
41686;BME280;27370;42.764;23.432;2023-02-21T10:27:56;95663.22;;;16.81;42.86
41686;BME280;27370;42.764;23.432;2023-02-21T10:30:36;95650.16;;;17.38;42.96
41686;BME280;27370;42.764;23.432;2023-02-21T10:33:06;95648.34;;;17.75;41.39
41686;BME280;27370;42.764;23.432;2023-02-21T10:35:33;95644.91;;;17.93;38.30
41686;BME280;27370;42.764;23.432;2023-02-21T10:38:01;95643.69;;;18.03;38.64
41686;BME280;27370;42.764;23.432;2023-02-21T10:40:38;95640.97;;;17.63;38.48
41686;BME280;27370;42.764;23.432;2023-02-21T10:43:26;95645.06;;;17.90;39.56
41686;BME280;27370;42.764;23.432;2023-02-21T10:46:04;95630.75;;;17.95;37.44
41686;BME280;27370;42.764;23.432;2023-02-21T10:48:36;95624.84;;;18.24;38.23
41686;BME280;27370;42.764;23.432;2023-02-21T10:53:38;95620.06;;;17.79;36.91
41686;BME280;27370;42.764;23.432;2023-02-21T10:58:35;95609.75;;;17.92;38.56
41686;BME280;27370;42.764;23.432;2023-02-21T11:01:28;95605.03;;;18.01;40.53
41686;BME280;27370;42.764;23.432;2023-02-21T11:04:00;95603.69;;;18.15;39.97
41686;BME280;27370;42.764;23.432;2023-02-21T11:08:55;95591.81;;;18.46;37.50
41686;BME280;27370;42.764;23.432;2023-02-21T11:11:32;95585.13;;;18.19;36.66
41686;BME280;27370;42.764;23.432;2023-02-21T11:16:42;95572.78;;;18.15;37.83
41686;BME280;27370;42.764;23.432;2023-02-21T11:19:12;95567.44;;;18.39;36.85
41686;BME280;27370;42.764;23.432;2023-02-21T11:21:40;95559.81;;;18.61;35.06
41686;BME280;27370;42.764;23.432;2023-02-21T11:24:10;95559.69;;;18.64;35.10
41686;BME280;27370;42.764;23.432;2023-02-21T11:26:43;95556.66;;;18.35;34.65
41686;BME280;27370;42.764;23.432;2023-02-21T11:29:13;95549.13;;;18.54;35.82
41686;BME280;27370;42.764;23.432;2023-02-21T11:31:39;95544.44;;;18.63;34.44
41686;BME280;27370;42.764;23.432;2023-02-21T11:34:07;95529.66;;;18.52;33.02
41686;BME280;27370;42.764;23.432;2023-02-21T11:36:42;95538.78;;;18.58;33.58
41686;BME280;27370;42.764;23.432;2023-02-21T11:39:18;95529.47;;;18.55;31.96
41686;BME280;27370;42.764;23.432;2023-02-21T11:41:55;95533.03;;;18.38;31.96
41686;BME280;27370;42.764;23.432;2023-02-21T11:44:22;95524.66;;;18.23;32.19
41686;BME280;27370;42.764;23.432;2023-02-21T11:46:54;95515.81;;;18.10;31.73
41686;BME280;27370;42.764;23.432;2023-02-21T11:49:31;95520.72;;;18.15;32.38
41686;BME280;27370;42.764;23.432;2023-02-21T11:52:05;95513.94;;;18.52;33.41
41686;BME280;27370;42.764;23.432;2023-02-21T11:54:32;95516.94;;;18.91;33.24
41686;BME280;27370;42.764;23.432;2023-02-21T11:57:03;95502.88;;;18.38;31.80
41686;BME280;27370;42.764;23.432;2023-02-21T12:08:14;95487.78;;;18.42;32.72
41686;BME280;27370;42.764;23.432;2023-02-21T12:32:54;95419.50;;;18.62;32.66
41686;BME280;27370;42.764;23.432;2023-02-21T12:41:32;95424.41;;;19.15;31.36
41686;BME280;27370;42.764;23.432;2023-02-21T12:44:21;95427.44;;;19.41;32.36
41686;BME280;27370;42.764;23.432;2023-02-21T12:57:37;95424.66;;;19.26;26.99
41686;BME280;27370;42.764;23.432;2023-02-21T13:00:34;95418.59;;;19.46;28.88
41686;BME280;27370;42.764;23.432;2023-02-21T13:05:43;95415.53;;;19.68;28.53
41686;BME280;27370;42.764;23.432;2023-02-21T13:08:15;95399.84;;;19.83;28.04
41686;BME280;27370;42.764;23.432;2023-02-21T13:13:30;95402.41;;;19.87;28.09
41686;BME280;27370;42.764;23.432;2023-02-21T13:16:04;95407.84;;;19.57;27.94
41686;BME280;27370;42.764;23.432;2023-02-21T13:18:34;95393.81;;;19.32;28.26
41686;BME280;27370;42.764;23.432;2023-02-21T13:23:50;95396.03;;;19.81;27.40
41686;BME280;27370;42.764;23.432;2023-02-21T13:28:56;95397.06;;;19.69;27.22
41686;BME280;27370;42.764;23.432;2023-02-21T13:31:27;95390.59;;;19.57;28.13
41686;BME280;27370;42.764;23.432;2023-02-21T13:34:02;95383.94;;;19.49;27.35
41686;BME280;27370;42.764;23.432;2023-02-21T13:39:09;95399.22;;;18.60;28.09
41686;BME280;27370;42.764;23.432;2023-02-21T13:41:39;95391.38;;;18.44;29.04
41686;BME280;27370;42.764;23.432;2023-02-21T13:49:55;95377.75;;;18.58;29.28
41686;BME280;27370;42.764;23.432;2023-02-21T14:05:23;95370.19;;;17.84;29.76
41686;BME280;27370;42.764;23.432;2023-02-21T14:10:37;95379.97;;;17.75;30.50
41686;BME280;27370;42.764;23.432;2023-02-21T14:13:07;95370.09;;;17.69;29.99
41686;BME280;27370;42.764;23.432;2023-02-21T14:15:44;95371.56;;;17.42;30.43
41686;BME280;27370;42.764;23.432;2023-02-21T14:18:48;95376.91;;;17.37;30.50
41686;BME280;27370;42.764;23.432;2023-02-21T14:21:35;95379.19;;;17.38;30.53
41686;BME280;27370;42.764;23.432;2023-02-21T14:24:18;95374.47;;;17.30;31.51
41686;BME280;27370;42.764;23.432;2023-02-21T14:30:30;95357.91;;;17.24;31.81
41686;BME280;27370;42.764;23.432;2023-02-21T14:32:25;95374.31;;;17.33;30.85
41686;BME280;27370;42.764;23.432;2023-02-21T14:34:55;95366.88;;;17.25;31.20
41686;BME280;27370;42.764;23.432;2023-02-21T14:37:40;95372.31;;;17.15;31.26
41686;BME280;27370;42.764;23.432;2023-02-21T14:40:16;95369.44;;;17.10;31.35
41686;BME280;27370;42.764;23.432;2023-02-21T14:43:00;95364.22;;;16.94;33.17
41686;BME280;27370;42.764;23.432;2023-02-21T15:02:16;95361.72;;;16.59;32.98
41686;BME280;27370;42.764;23.432;2023-02-21T15:04:58;95354.22;;;16.50;33.81
41686;BME280;27370;42.764;23.432;2023-02-21T15:07:38;95356.66;;;16.48;33.20
41686;BME280;27370;42.764;23.432;2023-02-21T15:13:33;95348.41;;;16.30;34.08
41686;BME280;27370;42.764;23.432;2023-02-21T15:15:40;95356.81;;;16.14;33.39
41686;BME280;27370;42.764;23.432;2023-02-21T15:18:14;95360.00;;;16.12;33.17
41686;BME280;27370;42.764;23.432;2023-02-21T15:21:01;95358.25;;;15.97;33.81
41686;BME280;27370;42.764;23.432;2023-02-21T15:23:27;95359.53;;;15.83;34.01
41686;BME280;27370;42.764;23.432;2023-02-21T15:25:56;95361.72;;;15.66;34.10
41686;BME280;27370;42.764;23.432;2023-02-21T15:28:28;95360.97;;;15.53;34.82
41686;BME280;27370;42.764;23.432;2023-02-21T15:33:27;95371.63;;;15.38;33.75
41686;BME280;27370;42.764;23.432;2023-02-21T15:35:56;95376.38;;;15.25;35.21
41686;BME280;27370;42.764;23.432;2023-02-21T15:38:30;95367.28;;;15.06;35.03
41686;BME280;27370;42.764;23.432;2023-02-21T15:41:04;95367.97;;;14.85;35.98
41686;BME280;27370;42.764;23.432;2023-02-21T15:44:33;95373.88;;;14.70;37.15
41686;BME280;27370;42.764;23.432;2023-02-21T15:46:38;95372.50;;;14.53;37.36
41686;BME280;27370;42.764;23.432;2023-02-21T15:49:06;95376.72;;;14.41;37.97
41686;BME280;27370;42.764;23.432;2023-02-21T15:51:37;95382.38;;;14.22;37.24
41686;BME280;27370;42.764;23.432;2023-02-21T15:56:41;95387.63;;;13.74;40.38
41686;BME280;27370;42.764;23.432;2023-02-21T16:01:36;95377.53;;;13.17;42.15
41686;BME280;27370;42.764;23.432;2023-02-21T16:04:21;95391.59;;;13.12;42.07
41686;BME280;27370;42.764;23.432;2023-02-21T16:06:55;95395.22;;;12.93;42.39